Terminal Aerodrome Forecast
Issued by NWS

Home | Current Version | Previous Version | Text Only | Print | Product List | Glossary On
Versions: 1 2 3 4 5 6 7 8 9 10 11 12 13 14 15 16 17 18 19 20 21 22 23 24 25 26 27 28
000
FTUS43 KDDC 221720
TAFHYS
TAF
KHYS 221720Z 2218/2318 17013G17KT P6SM SKC
     FM230300 15008KT P6SM OVC100
     FM230600 16009KT P6SM OVC100
     FM231500 17015KT P6SM OVC050 PROB30 2315/2318 P6SM -RA OVC050=

USA.gov is the U.S. government's official web portal to all federal, state and local government web resources and services.